sensor_id;sensor_type;location;lat;lon;timestamp;noise_LAeq;noise_LA_min;noise_LA_max;noise_LA01;noise_LA95
70740;Laerm;58330;51.888;11.052;2023-02-22T00:01:08;44.57;41.13;51.19;;
70740;Laerm;58330;51.888;11.052;2023-02-22T00:03:46;44.36;41.35;50.56;;
70740;Laerm;58330;51.888;11.052;2023-02-22T00:06:14;43.63;40.54;47.10;;
70740;Laerm;58330;51.888;11.052;2023-02-22T00:08:41;42.88;39.56;47.56;;
70740;Laerm;58330;51.888;11.052;2023-02-22T00:11:08;43.04;40.49;48.36;;
70740;Laerm;58330;51.888;11.052;2023-02-22T00:13:34;42.72;39.23;47.86;;
70740;Laerm;58330;51.888;11.052;2023-02-22T00:16:02;42.83;39.73;46.31;;
70740;Laerm;58330;51.888;11.052;2023-02-22T00:18:29;42.56;38.90;47.83;;
70740;Laerm;58330;51.888;11.052;2023-02-22T00:20:56;42.60;39.77;46.04;;
70740;Laerm;58330;51.888;11.052;2023-02-22T00:23:24;42.53;40.08;46.08;;
70740;Laerm;58330;51.888;11.052;2023-02-22T00:25:50;42.48;39.66;46.59;;
70740;Laerm;58330;51.888;11.052;2023-02-22T00:28:17;42.79;39.46;47.20;;
70740;Laerm;58330;51.888;11.052;2023-02-22T00:30:44;42.40;39.73;46.63;;
70740;Laerm;58330;51.888;11.052;2023-02-22T00:33:13;41.97;38.89;47.81;;
70740;Laerm;58330;51.888;11.052;2023-02-22T00:35:40;41.62;39.15;45.09;;
70740;Laerm;58330;51.888;11.052;2023-02-22T00:38:10;41.84;39.07;45.27;;
70740;Laerm;58330;51.888;11.052;2023-02-22T00:40:36;41.34;38.70;45.65;;
70740;Laerm;58330;51.888;11.052;2023-02-22T00:43:04;41.23;38.33;49.50;;
70740;Laerm;58330;51.888;11.052;2023-02-22T00:45:32;41.29;37.93;44.54;;
70740;Laerm;58330;51.888;11.052;2023-02-22T00:47:58;40.94;38.11;44.74;;
70740;Laerm;58330;51.888;11.052;2023-02-22T00:50:27;40.75;38.23;43.82;;
70740;Laerm;58330;51.888;11.052;2023-02-22T00:52:54;40.58;37.79;43.81;;
70740;Laerm;58330;51.888;11.052;2023-02-22T00:55:21;40.76;37.53;44.23;;
70740;Laerm;58330;51.888;11.052;2023-02-22T00:57:48;40.46;38.20;43.14;;
70740;Laerm;58330;51.888;11.052;2023-02-22T01:00:16;39.26;36.65;43.66;;
70740;Laerm;58330;51.888;11.052;2023-02-22T01:02:44;40.40;37.21;45.37;;
70740;Laerm;58330;51.888;11.052;2023-02-22T01:05:15;40.60;37.55;44.36;;
70740;Laerm;58330;51.888;11.052;2023-02-22T01:07:43;41.37;38.33;47.61;;
70740;Laerm;58330;51.888;11.052;2023-02-22T01:10:09;41.40;37.59;47.23;;
70740;Laerm;58330;51.888;11.052;2023-02-22T01:12:36;41.35;38.20;45.81;;
70740;Laerm;58330;51.888;11.052;2023-02-22T01:15:03;40.78;37.61;44.60;;
70740;Laerm;58330;51.888;11.052;2023-02-22T01:17:29;40.73;37.58;43.90;;
70740;Laerm;58330;51.888;11.052;2023-02-22T01:19:56;41.24;37.95;45.55;;
70740;Laerm;58330;51.888;11.052;2023-02-22T01:22:22;41.54;38.00;46.99;;
70740;Laerm;58330;51.888;11.052;2023-02-22T01:24:50;41.28;37.40;45.68;;
70740;Laerm;58330;51.888;11.052;2023-02-22T01:27:16;40.16;37.16;44.53;;
70740;Laerm;58330;51.888;11.052;2023-02-22T01:29:43;40.89;37.42;44.87;;
70740;Laerm;58330;51.888;11.052;2023-02-22T01:32:09;41.69;37.98;45.35;;
70740;Laerm;58330;51.888;11.052;2023-02-22T01:34:36;41.74;38.52;46.40;;
70740;Laerm;58330;51.888;11.052;2023-02-22T01:37:03;41.43;38.60;44.02;;
70740;Laerm;58330;51.888;11.052;2023-02-22T01:39:30;41.55;38.44;44.93;;
70740;Laerm;58330;51.888;11.052;2023-02-22T01:41:58;42.10;38.88;46.22;;
70740;Laerm;58330;51.888;11.052;2023-02-22T01:44:28;42.08;37.94;47.12;;
70740;Laerm;58330;51.888;11.052;2023-02-22T01:46:55;41.86;38.32;45.75;;
70740;Laerm;58330;51.888;11.052;2023-02-22T01:49:22;41.96;38.26;44.78;;
70740;Laerm;58330;51.888;11.052;2023-02-22T01:51:49;42.08;38.13;45.79;;
70740;Laerm;58330;51.888;11.052;2023-02-22T01:54:18;42.36;38.57;46.50;;
70740;Laerm;58330;51.888;11.052;2023-02-22T01:57:00;43.37;40.63;46.92;;
70740;Laerm;58330;51.888;11.052;2023-02-22T01:59:31;42.96;38.91;46.70;;
70740;Laerm;58330;51.888;11.052;2023-02-22T02:01:59;42.52;38.94;46.07;;
70740;Laerm;58330;51.888;11.052;2023-02-22T02:04:25;44.95;37.69;67.69;;
70740;Laerm;58330;51.888;11.052;2023-02-22T02:06:53;44.46;38.07;48.78;;
70740;Laerm;58330;51.888;11.052;2023-02-22T02:09:22;44.36;37.83;49.13;;
70740;Laerm;58330;51.888;11.052;2023-02-22T02:11:53;44.32;39.49;48.25;;
70740;Laerm;58330;51.888;11.052;2023-02-22T02:14:20;44.15;36.61;49.36;;
70740;Laerm;58330;51.888;11.052;2023-02-22T02:16:48;42.09;36.41;48.43;;
70740;Laerm;58330;51.888;11.052;2023-02-22T02:19:19;43.05;36.18;48.15;;
70740;Laerm;58330;51.888;11.052;2023-02-22T02:22:01;41.84;36.21;49.09;;
70740;Laerm;58330;51.888;11.052;2023-02-22T02:24:39;40.49;36.40;47.02;;
70740;Laerm;58330;51.888;11.052;2023-02-22T02:27:15;40.03;36.40;45.86;;
70740;Laerm;58330;51.888;11.052;2023-02-22T02:32:27;41.06;37.08;48.52;;
70740;Laerm;58330;51.888;11.052;2023-02-22T02:34:57;42.31;37.35;48.46;;
70740;Laerm;58330;51.888;11.052;2023-02-22T02:37:31;43.49;37.85;48.64;;
70740;Laerm;58330;51.888;11.052;2023-02-22T02:40:01;43.65;37.99;48.74;;
70740;Laerm;58330;51.888;11.052;2023-02-22T02:42:36;42.86;37.46;48.73;;
70740;Laerm;58330;51.888;11.052;2023-02-22T02:45:04;43.95;38.32;48.79;;
70740;Laerm;58330;51.888;11.052;2023-02-22T02:47:36;42.38;37.32;48.04;;
70740;Laerm;58330;51.888;11.052;2023-02-22T02:50:06;42.75;37.69;48.55;;
70740;Laerm;58330;51.888;11.052;2023-02-22T02:52:34;42.54;37.80;47.49;;
70740;Laerm;58330;51.888;11.052;2023-02-22T02:55:02;42.29;36.93;49.55;;
70740;Laerm;58330;51.888;11.052;2023-02-22T02:57:29;41.37;37.01;48.52;;
70740;Laerm;58330;51.888;11.052;2023-02-22T02:59:56;41.59;37.02;47.39;;
70740;Laerm;58330;51.888;11.052;2023-02-22T03:02:26;41.86;37.74;46.62;;
70740;Laerm;58330;51.888;11.052;2023-02-22T03:05:03;41.47;37.47;46.40;;
70740;Laerm;58330;51.888;11.052;2023-02-22T03:07:40;40.80;37.27;46.49;;
70740;Laerm;58330;51.888;11.052;2023-02-22T03:12:55;41.51;37.58;46.57;;
70740;Laerm;58330;51.888;11.052;2023-02-22T03:15:26;41.50;37.62;46.66;;
70740;Laerm;58330;51.888;11.052;2023-02-22T03:18:01;41.31;37.44;47.24;;
70740;Laerm;58330;51.888;11.052;2023-02-22T03:20:30;41.14;37.40;45.75;;
70740;Laerm;58330;51.888;11.052;2023-02-22T03:23:00;41.19;37.38;47.11;;
70740;Laerm;58330;51.888;11.052;2023-02-22T03:25:31;41.49;37.32;46.54;;
70740;Laerm;58330;51.888;11.052;2023-02-22T03:27:59;41.57;37.77;46.51;;
70740;Laerm;58330;51.888;11.052;2023-02-22T03:30:30;41.99;38.46;47.68;;
70740;Laerm;58330;51.888;11.052;2023-02-22T03:32:59;42.06;38.58;47.86;;
70740;Laerm;58330;51.888;11.052;2023-02-22T03:35:27;42.54;38.72;47.64;;
70740;Laerm;58330;51.888;11.052;2023-02-22T03:37:57;43.32;38.70;50.41;;
70740;Laerm;58330;51.888;11.052;2023-02-22T03:40:26;42.25;37.54;48.14;;
70740;Laerm;58330;51.888;11.052;2023-02-22T03:42:54;42.10;38.29;46.25;;
70740;Laerm;58330;51.888;11.052;2023-02-22T03:45:23;41.10;37.44;45.85;;
70740;Laerm;58330;51.888;11.052;2023-02-22T03:47:50;41.81;38.01;46.48;;
70740;Laerm;58330;51.888;11.052;2023-02-22T03:50:19;41.31;37.78;45.86;;
70740;Laerm;58330;51.888;11.052;2023-02-22T03:52:46;41.60;37.96;46.33;;
70740;Laerm;58330;51.888;11.052;2023-02-22T03:55:14;41.30;37.78;45.76;;
70740;Laerm;58330;51.888;11.052;2023-02-22T03:57:42;41.64;37.69;46.41;;
70740;Laerm;58330;51.888;11.052;2023-02-22T04:00:11;41.69;38.42;46.50;;
70740;Laerm;58330;51.888;11.052;2023-02-22T04:02:38;41.27;37.78;45.83;;
70740;Laerm;58330;51.888;11.052;2023-02-22T04:05:05;41.38;37.49;45.99;;
70740;Laerm;58330;51.888;11.052;2023-02-22T04:07:31;41.17;37.77;45.80;;
70740;Laerm;58330;51.888;11.052;2023-02-22T04:09:57;41.28;38.14;48.43;;
70740;Laerm;58330;51.888;11.052;2023-02-22T04:12:27;41.86;38.52;46.97;;
70740;Laerm;58330;51.888;11.052;2023-02-22T04:14:54;41.67;38.23;45.93;;
70740;Laerm;58330;51.888;11.052;2023-02-22T04:17:20;42.13;38.79;48.11;;
70740;Laerm;58330;51.888;11.052;2023-02-22T04:19:46;43.89;39.41;48.05;;
70740;Laerm;58330;51.888;11.052;2023-02-22T04:22:13;45.56;41.55;48.75;;
70740;Laerm;58330;51.888;11.052;2023-02-22T04:24:39;42.88;37.76;48.80;;
70740;Laerm;58330;51.888;11.052;2023-02-22T04:27:05;41.93;38.10;47.82;;
70740;Laerm;58330;51.888;11.052;2023-02-22T04:29:33;42.08;38.39;47.09;;
70740;Laerm;58330;51.888;11.052;2023-02-22T04:31:59;41.60;38.66;46.97;;
70740;Laerm;58330;51.888;11.052;2023-02-22T04:34:25;41.48;38.73;46.67;;
70740;Laerm;58330;51.888;11.052;2023-02-22T04:36:52;40.93;38.62;48.38;;
70740;Laerm;58330;51.888;11.052;2023-02-22T04:39:18;40.90;38.65;45.58;;
70740;Laerm;58330;51.888;11.052;2023-02-22T04:41:44;41.26;38.41;46.49;;
70740;Laerm;58330;51.888;11.052;2023-02-22T04:44:11;40.62;37.83;45.98;;
70740;Laerm;58330;51.888;11.052;2023-02-22T04:46:39;41.09;38.31;46.00;;
70740;Laerm;58330;51.888;11.052;2023-02-22T04:49:05;41.08;38.10;45.70;;
70740;Laerm;58330;51.888;11.052;2023-02-22T04:51:31;41.96;39.11;45.87;;
70740;Laerm;58330;51.888;11.052;2023-02-22T04:53:59;41.67;37.95;46.15;;
70740;Laerm;58330;51.888;11.052;2023-02-22T04:56:26;41.65;38.11;45.70;;
70740;Laerm;58330;51.888;11.052;2023-02-22T04:58:52;41.73;37.93;45.70;;
70740;Laerm;58330;51.888;11.052;2023-02-22T05:01:18;42.03;38.20;47.67;;
70740;Laerm;58330;51.888;11.052;2023-02-22T05:03:46;41.07;37.53;44.92;;
70740;Laerm;58330;51.888;11.052;2023-02-22T05:06:12;40.93;37.73;45.40;;
70740;Laerm;58330;51.888;11.052;2023-02-22T05:08:38;40.62;37.78;54.00;;
70740;Laerm;58330;51.888;11.052;2023-02-22T05:11:05;40.43;37.33;44.86;;
70740;Laerm;58330;51.888;11.052;2023-02-22T05:13:31;40.33;37.00;44.96;;
70740;Laerm;58330;51.888;11.052;2023-02-22T05:15:57;41.12;37.23;47.88;;
70740;Laerm;58330;51.888;11.052;2023-02-22T05:18:23;41.36;37.21;49.22;;
70740;Laerm;58330;51.888;11.052;2023-02-22T05:20:51;41.28;36.71;49.15;;
70740;Laerm;58330;51.888;11.052;2023-02-22T05:23:17;42.15;37.04;50.77;;
70740;Laerm;58330;51.888;11.052;2023-02-22T05:25:43;41.54;36.91;50.92;;
70740;Laerm;58330;51.888;11.052;2023-02-22T05:28:11;40.68;37.16;48.65;;
70740;Laerm;58330;51.888;11.052;2023-02-22T05:30:38;40.06;36.75;48.52;;
70740;Laerm;58330;51.888;11.052;2023-02-22T05:33:04;42.68;37.50;52.92;;
70740;Laerm;58330;51.888;11.052;2023-02-22T05:35:31;42.60;37.72;50.35;;
70740;Laerm;58330;51.888;11.052;2023-02-22T05:37:58;42.55;37.55;49.83;;
70740;Laerm;58330;51.888;11.052;2023-02-22T05:40:27;41.70;37.79;48.57;;
70740;Laerm;58330;51.888;11.052;2023-02-22T05:42:54;40.87;37.43;47.03;;
70740;Laerm;58330;51.888;11.052;2023-02-22T05:45:21;40.53;37.16;46.39;;
70740;Laerm;58330;51.888;11.052;2023-02-22T05:47:48;40.26;37.09;47.58;;
70740;Laerm;58330;51.888;11.052;2023-02-22T05:50:14;39.49;37.12;44.17;;
70740;Laerm;58330;51.888;11.052;2023-02-22T05:52:41;40.77;37.58;46.43;;
70740;Laerm;58330;51.888;11.052;2023-02-22T05:55:09;40.73;37.51;47.53;;
70740;Laerm;58330;51.888;11.052;2023-02-22T05:57:36;41.10;37.53;46.35;;
70740;Laerm;58330;51.888;11.052;2023-02-22T06:00:03;40.37;37.22;45.56;;
70740;Laerm;58330;51.888;11.052;2023-02-22T06:02:31;41.38;37.36;47.44;;
70740;Laerm;58330;51.888;11.052;2023-02-22T06:04:57;41.52;37.49;47.84;;
70740;Laerm;58330;51.888;11.052;2023-02-22T06:07:24;42.28;37.29;46.88;;
70740;Laerm;58330;51.888;11.052;2023-02-22T06:09:51;41.85;37.57;51.11;;
70740;Laerm;58330;51.888;11.052;2023-02-22T06:12:18;41.81;37.49;47.76;;
70740;Laerm;58330;51.888;11.052;2023-02-22T06:14:45;42.02;37.64;47.75;;
70740;Laerm;58330;51.888;11.052;2023-02-22T06:17:11;42.69;37.01;49.27;;
70740;Laerm;58330;51.888;11.052;2023-02-22T06:19:38;42.08;37.19;48.71;;
70740;Laerm;58330;51.888;11.052;2023-02-22T06:22:05;42.10;37.30;49.10;;
70740;Laerm;58330;51.888;11.052;2023-02-22T06:24:31;42.16;37.60;48.26;;
70740;Laerm;58330;51.888;11.052;2023-02-22T06:26:58;41.98;37.29;47.89;;
70740;Laerm;58330;51.888;11.052;2023-02-22T06:29:27;43.53;37.68;56.16;;
70740;Laerm;58330;51.888;11.052;2023-02-22T06:31:54;42.55;37.91;49.11;;
70740;Laerm;58330;51.888;11.052;2023-02-22T06:34:21;42.77;37.91;49.77;;
70740;Laerm;58330;51.888;11.052;2023-02-22T06:36:47;42.18;37.26;48.65;;
70740;Laerm;58330;51.888;11.052;2023-02-22T06:39:14;41.45;37.42;48.49;;
70740;Laerm;58330;51.888;11.052;2023-02-22T06:41:41;41.92;37.48;49.56;;
70740;Laerm;58330;51.888;11.052;2023-02-22T06:44:08;41.35;37.52;49.17;;
70740;Laerm;58330;51.888;11.052;2023-02-22T06:46:36;40.76;37.28;48.22;;
70740;Laerm;58330;51.888;11.052;2023-02-22T06:49:03;40.17;37.11;47.70;;
70740;Laerm;58330;51.888;11.052;2023-02-22T06:51:33;40.05;36.92;47.70;;
70740;Laerm;58330;51.888;11.052;2023-02-22T06:54:00;40.14;37.16;46.90;;
70740;Laerm;58330;51.888;11.052;2023-02-22T06:56:28;39.03;36.72;44.44;;
70740;Laerm;58330;51.888;11.052;2023-02-22T06:58:54;40.48;36.85;48.15;;
70740;Laerm;58330;51.888;11.052;2023-02-22T07:01:21;40.18;37.17;47.44;;
70740;Laerm;58330;51.888;11.052;2023-02-22T07:03:48;40.69;37.53;48.31;;
70740;Laerm;58330;51.888;11.052;2023-02-22T07:06:15;41.04;37.25;48.38;;
70740;Laerm;58330;51.888;11.052;2023-02-22T07:08:41;39.50;36.63;47.00;;
70740;Laerm;58330;51.888;11.052;2023-02-22T07:11:07;40.50;36.87;49.57;;
70740;Laerm;58330;51.888;11.052;2023-02-22T07:13:34;40.04;37.07;47.85;;
70740;Laerm;58330;51.888;11.052;2023-02-22T07:16:01;39.37;36.97;47.67;;
70740;Laerm;58330;51.888;11.052;2023-02-22T07:18:27;39.35;36.91;47.59;;
70740;Laerm;58330;51.888;11.052;2023-02-22T07:20:55;40.20;36.98;46.86;;
70740;Laerm;58330;51.888;11.052;2023-02-22T07:23:22;41.64;37.51;49.24;;
70740;Laerm;58330;51.888;11.052;2023-02-22T07:25:49;42.74;38.50;48.42;;
70740;Laerm;58330;51.888;11.052;2023-02-22T07:28:15;43.71;38.86;48.88;;
70740;Laerm;58330;51.888;11.052;2023-02-22T07:30:44;41.76;37.96;48.40;;
70740;Laerm;58330;51.888;11.052;2023-02-22T07:33:10;40.97;37.22;46.76;;
70740;Laerm;58330;51.888;11.052;2023-02-22T07:35:38;41.84;37.04;49.83;;
70740;Laerm;58330;51.888;11.052;2023-02-22T07:38:06;41.41;37.51;47.31;;
70740;Laerm;58330;51.888;11.052;2023-02-22T07:40:33;42.90;37.27;52.28;;
70740;Laerm;58330;51.888;11.052;2023-02-22T07:43:00;39.68;35.52;47.27;;
70740;Laerm;58330;51.888;11.052;2023-02-22T07:45:28;38.82;35.57;44.91;;
70740;Laerm;58330;51.888;11.052;2023-02-22T07:47:54;39.74;35.82;47.95;;
70740;Laerm;58330;51.888;11.052;2023-02-22T07:50:21;38.94;35.78;44.50;;
70740;Laerm;58330;51.888;11.052;2023-02-22T07:52:48;38.50;34.77;44.18;;
70740;Laerm;58330;51.888;11.052;2023-02-22T07:55:17;38.70;34.70;48.50;;
70740;Laerm;58330;51.888;11.052;2023-02-22T07:57:45;39.94;34.09;51.39;;
70740;Laerm;58330;51.888;11.052;2023-02-22T08:00:13;35.98;33.28;41.68;;
70740;Laerm;58330;51.888;11.052;2023-02-22T08:02:40;38.91;33.76;52.43;;
70740;Laerm;58330;51.888;11.052;2023-02-22T08:05:07;37.42;33.24;47.52;;
70740;Laerm;58330;51.888;11.052;2023-02-22T08:07:35;39.62;34.42;51.77;;
70740;Laerm;58330;51.888;11.052;2023-02-22T08:10:01;36.66;33.11;46.93;;
70740;Laerm;58330;51.888;11.052;2023-02-22T08:12:31;35.38;32.94;44.95;;
70740;Laerm;58330;51.888;11.052;2023-02-22T08:14:58;36.47;33.40;47.39;;
70740;Laerm;58330;51.888;11.052;2023-02-22T08:17:24;36.29;33.38;43.81;;
70740;Laerm;58330;51.888;11.052;2023-02-22T08:19:52;37.30;32.96;49.35;;
70740;Laerm;58330;51.888;11.052;2023-02-22T08:22:18;37.12;32.26;46.01;;
70740;Laerm;58330;51.888;11.052;2023-02-22T08:24:45;39.30;32.72;51.67;;
70740;Laerm;58330;51.888;11.052;2023-02-22T08:27:11;37.96;32.47;47.22;;
70740;Laerm;58330;51.888;11.052;2023-02-22T08:29:39;37.78;32.03;47.80;;
70740;Laerm;58330;51.888;11.052;2023-02-22T08:32:05;35.42;32.08;45.83;;
70740;Laerm;58330;51.888;11.052;2023-02-22T08:34:32;37.25;32.45;49.51;;
70740;Laerm;58330;51.888;11.052;2023-02-22T08:37:03;36.66;32.34;43.41;;
70740;Laerm;58330;51.888;11.052;2023-02-22T08:39:29;37.36;31.89;47.44;;
70740;Laerm;58330;51.888;11.052;2023-02-22T08:41:56;37.80;31.91;49.52;;
70740;Laerm;58330;51.888;11.052;2023-02-22T08:44:22;37.67;32.75;47.58;;
70740;Laerm;58330;51.888;11.052;2023-02-22T08:46:50;38.40;32.26;50.78;;
70740;Laerm;58330;51.888;11.052;2023-02-22T08:49:16;36.98;32.77;46.41;;
70740;Laerm;58330;51.888;11.052;2023-02-22T08:51:44;36.27;32.10;52.28;;
70740;Laerm;58330;51.888;11.052;2023-02-22T08:54:11;37.29;32.34;46.55;;
70740;Laerm;58330;51.888;11.052;2023-02-22T08:56:37;35.94;32.11;46.11;;
70740;Laerm;58330;51.888;11.052;2023-02-22T08:59:03;38.03;33.33;48.37;;
70740;Laerm;58330;51.888;11.052;2023-02-22T09:01:30;36.59;32.16;47.32;;
70740;Laerm;58330;51.888;11.052;2023-02-22T09:03:59;36.60;32.51;44.50;;
70740;Laerm;58330;51.888;11.052;2023-02-22T09:06:26;40.91;33.79;49.68;;
70740;Laerm;58330;51.888;11.052;2023-02-22T09:08:53;42.37;34.11;51.92;;
70740;Laerm;58330;51.888;11.052;2023-02-22T09:11:19;37.46;33.32;47.76;;
70740;Laerm;58330;51.888;11.052;2023-02-22T09:13:46;38.19;32.97;48.03;;
70740;Laerm;58330;51.888;11.052;2023-02-22T09:16:12;39.11;33.60;51.91;;
70740;Laerm;58330;51.888;11.052;2023-02-22T09:18:39;37.53;33.21;50.91;;
70740;Laerm;58330;51.888;11.052;2023-02-22T09:21:07;34.64;31.66;41.16;;
70740;Laerm;58330;51.888;11.052;2023-02-22T09:23:33;37.94;32.51;44.47;;
70740;Laerm;58330;51.888;11.052;2023-02-22T09:26:00;35.50;31.90;46.22;;
70740;Laerm;58330;51.888;11.052;2023-02-22T09:28:26;41.38;32.40;52.92;;
70740;Laerm;58330;51.888;11.052;2023-02-22T09:30:52;38.74;30.92;52.13;;
70740;Laerm;58330;51.888;11.052;2023-02-22T09:33:19;39.15;31.75;53.31;;
70740;Laerm;58330;51.888;11.052;2023-02-22T09:35:48;37.28;31.87;53.08;;
70740;Laerm;58330;51.888;11.052;2023-02-22T09:38:17;36.17;30.46;46.24;;
70740;Laerm;58330;51.888;11.052;2023-02-22T09:40:44;36.14;31.65;44.02;;
70740;Laerm;58330;51.888;11.052;2023-02-22T09:43:18;37.93;30.77;51.74;;
70740;Laerm;58330;51.888;11.052;2023-02-22T09:45:50;35.31;30.93;50.11;;
70740;Laerm;58330;51.888;11.052;2023-02-22T09:48:21;37.81;31.66;47.51;;
70740;Laerm;58330;51.888;11.052;2023-02-22T09:50:50;35.48;31.47;45.22;;
70740;Laerm;58330;51.888;11.052;2023-02-22T09:53:21;36.13;31.35;46.95;;
70740;Laerm;58330;51.888;11.052;2023-02-22T09:55:53;37.32;32.10;47.43;;
70740;Laerm;58330;51.888;11.052;2023-02-22T09:58:25;36.24;31.88;47.28;;
70740;Laerm;58330;51.888;11.052;2023-02-22T10:01:03;35.64;31.67;41.46;;
70740;Laerm;58330;51.888;11.052;2023-02-22T10:03:40;38.16;32.33;49.11;;
70740;Laerm;58330;51.888;11.052;2023-02-22T10:06:12;35.30;30.96;49.13;;
70740;Laerm;58330;51.888;11.052;2023-02-22T10:08:41;35.36;31.98;44.67;;
70740;Laerm;58330;51.888;11.052;2023-02-22T10:11:09;36.47;31.02;45.71;;
70740;Laerm;58330;51.888;11.052;2023-02-22T10:13:42;36.56;31.31;47.96;;
70740;Laerm;58330;51.888;11.052;2023-02-22T10:16:14;38.02;32.67;49.46;;
70740;Laerm;58330;51.888;11.052;2023-02-22T10:18:58;43.91;30.97;58.53;;
70740;Laerm;58330;51.888;11.052;2023-02-22T10:24:17;37.51;32.15;50.31;;
70740;Laerm;58330;51.888;11.052;2023-02-22T10:26:48;36.72;31.82;44.93;;
70740;Laerm;58330;51.888;11.052;2023-02-22T10:29:16;39.09;33.43;48.66;;
70740;Laerm;58330;51.888;11.052;2023-02-22T10:31:48;44.55;32.43;60.48;;
70740;Laerm;58330;51.888;11.052;2023-02-22T10:34:21;37.31;33.54;44.98;;
70740;Laerm;58330;51.888;11.052;2023-02-22T10:36:50;37.61;33.55;45.76;;
70740;Laerm;58330;51.888;11.052;2023-02-22T10:39:22;40.27;33.14;52.50;;
70740;Laerm;58330;51.888;11.052;2023-02-22T10:41:54;41.05;33.43;56.62;;
70740;Laerm;58330;51.888;11.052;2023-02-22T10:44:22;40.71;33.31;54.41;;
70740;Laerm;58330;51.888;11.052;2023-02-22T10:46:48;40.49;34.39;55.74;;
70740;Laerm;58330;51.888;11.052;2023-02-22T10:49:17;39.33;33.31;55.28;;
70740;Laerm;58330;51.888;11.052;2023-02-22T10:51:45;39.45;32.10;55.02;;
70740;Laerm;58330;51.888;11.052;2023-02-22T10:54:21;38.78;31.28;49.68;;
70740;Laerm;58330;51.888;11.052;2023-02-22T10:56:51;34.78;30.50;46.05;;
70740;Laerm;58330;51.888;11.052;2023-02-22T10:59:26;35.37;30.56;45.57;;
70740;Laerm;58330;51.888;11.052;2023-02-22T11:01:53;36.53;31.37;56.12;;
70740;Laerm;58330;51.888;11.052;2023-02-22T11:04:21;40.24;32.23;53.43;;
70740;Laerm;58330;51.888;11.052;2023-02-22T11:09:41;36.88;32.75;49.02;;
70740;Laerm;58330;51.888;11.052;2023-02-22T11:12:14;39.76;32.55;48.12;;
70740;Laerm;58330;51.888;11.052;2023-02-22T11:14:41;37.35;32.33;46.62;;
70740;Laerm;58330;51.888;11.052;2023-02-22T11:17:08;36.56;33.36;47.67;;
70740;Laerm;58330;51.888;11.052;2023-02-22T11:19:38;40.57;32.94;51.93;;
70740;Laerm;58330;51.888;11.052;2023-02-22T11:22:11;39.60;33.10;52.25;;
70740;Laerm;58330;51.888;11.052;2023-02-22T11:24:44;37.71;32.89;49.90;;
70740;Laerm;58330;51.888;11.052;2023-02-22T11:27:23;40.19;32.77;50.35;;
70740;Laerm;58330;51.888;11.052;2023-02-22T11:29:50;36.73;32.71;45.01;;
70740;Laerm;58330;51.888;11.052;2023-02-22T11:32:17;40.50;32.18;51.65;;
70740;Laerm;58330;51.888;11.052;2023-02-22T11:34:46;37.65;31.99;49.19;;
70740;Laerm;58330;51.888;11.052;2023-02-22T11:37:22;36.90;32.40;47.37;;
70740;Laerm;58330;51.888;11.052;2023-02-22T11:40:03;38.09;31.66;49.56;;
70740;Laerm;58330;51.888;11.052;2023-02-22T11:42:31;36.48;32.43;47.75;;
70740;Laerm;58330;51.888;11.052;2023-02-22T11:45:09;37.41;32.80;53.66;;
70740;Laerm;58330;51.888;11.052;2023-02-22T11:47:44;38.14;32.85;47.84;;
70740;Laerm;58330;51.888;11.052;2023-02-22T11:50:16;40.13;32.75;51.99;;
70740;Laerm;58330;51.888;11.052;2023-02-22T11:52:44;37.59;32.92;48.24;;
70740;Laerm;58330;51.888;11.052;2023-02-22T11:55:16;36.55;32.13;45.95;;
70740;Laerm;58330;51.888;11.052;2023-02-22T11:57:50;39.88;32.67;51.98;;
70740;Laerm;58330;51.888;11.052;2023-02-22T12:00:21;36.75;32.41;44.84;;
70740;Laerm;58330;51.888;11.052;2023-02-22T12:02:58;37.42;32.38;50.88;;
70740;Laerm;58330;51.888;11.052;2023-02-22T12:05:31;41.68;32.33;54.29;;
70740;Laerm;58330;51.888;11.052;2023-02-22T12:08:05;40.93;32.47;67.80;;
70740;Laerm;58330;51.888;11.052;2023-02-22T12:13:24;37.85;32.94;60.28;;
70740;Laerm;58330;51.888;11.052;2023-02-22T12:15:58;41.68;33.24;53.69;;
70740;Laerm;58330;51.888;11.052;2023-02-22T12:18:29;40.77;33.73;55.10;;
70740;Laerm;58330;51.888;11.052;2023-02-22T12:21:00;41.26;34.50;51.00;;
70740;Laerm;58330;51.888;11.052;2023-02-22T12:23:30;38.44;33.63;50.10;;
70740;Laerm;58330;51.888;11.052;2023-02-22T12:26:02;39.54;33.07;54.46;;
70740;Laerm;58330;51.888;11.052;2023-02-22T12:28:32;40.40;33.21;54.78;;
70740;Laerm;58330;51.888;11.052;2023-02-22T12:31:05;40.04;33.43;47.86;;
70740;Laerm;58330;51.888;11.052;2023-02-22T12:33:37;39.94;32.30;50.13;;
70740;Laerm;58330;51.888;11.052;2023-02-22T12:36:07;40.25;33.15;48.96;;
70740;Laerm;58330;51.888;11.052;2023-02-22T12:38:36;39.65;32.99;48.69;;
70740;Laerm;58330;51.888;11.052;2023-02-22T12:41:06;42.13;32.94;58.91;;
70740;Laerm;58330;51.888;11.052;2023-02-22T12:43:38;39.07;33.15;49.89;;
70740;Laerm;58330;51.888;11.052;2023-02-22T12:46:09;39.83;33.64;51.03;;
70740;Laerm;58330;51.888;11.052;2023-02-22T12:48:39;36.93;32.84;43.51;;
70740;Laerm;58330;51.888;11.052;2023-02-22T12:51:14;36.97;32.22;47.28;;
70740;Laerm;58330;51.888;11.052;2023-02-22T12:53:43;38.78;33.12;47.11;;
70740;Laerm;58330;51.888;11.052;2023-02-22T12:56:16;38.94;33.10;47.06;;
70740;Laerm;58330;51.888;11.052;2023-02-22T12:58:48;37.06;32.34;49.32;;
70740;Laerm;58330;51.888;11.052;2023-02-22T13:01:18;37.13;32.74;51.63;;
70740;Laerm;58330;51.888;11.052;2023-02-22T13:03:46;38.60;33.37;48.58;;
70740;Laerm;58330;51.888;11.052;2023-02-22T13:06:16;37.00;32.81;44.30;;
70740;Laerm;58330;51.888;11.052;2023-02-22T13:08:49;37.74;33.05;49.00;;
70740;Laerm;58330;51.888;11.052;2023-02-22T13:11:21;39.57;33.52;49.33;;
70740;Laerm;58330;51.888;11.052;2023-02-22T13:13:55;38.21;33.04;43.81;;
70740;Laerm;58330;51.888;11.052;2023-02-22T13:16:30;38.51;33.44;46.59;;
70740;Laerm;58330;51.888;11.052;2023-02-22T13:19:00;38.65;34.35;47.32;;
70740;Laerm;58330;51.888;11.052;2023-02-22T13:21:30;39.34;34.36;49.24;;
70740;Laerm;58330;51.888;11.052;2023-02-22T13:24:02;39.84;34.30;49.51;;
70740;Laerm;58330;51.888;11.052;2023-02-22T13:26:32;37.90;33.99;51.08;;
70740;Laerm;58330;51.888;11.052;2023-02-22T13:29:05;38.60;33.46;50.92;;
70740;Laerm;58330;51.888;11.052;2023-02-22T13:31:37;38.83;33.71;47.95;;
70740;Laerm;58330;51.888;11.052;2023-02-22T13:34:12;38.63;33.05;46.76;;
70740;Laerm;58330;51.888;11.052;2023-02-22T13:36:48;39.20;34.21;55.25;;
70740;Laerm;58330;51.888;11.052;2023-02-22T13:52:40;39.61;34.22;52.71;;
70740;Laerm;58330;51.888;11.052;2023-02-22T13:55:10;42.14;34.99;51.46;;
70740;Laerm;58330;51.888;11.052;2023-02-22T13:57:40;41.24;35.56;58.42;;
70740;Laerm;58330;51.888;11.052;2023-02-22T14:00:19;40.35;34.93;54.20;;
70740;Laerm;58330;51.888;11.052;2023-02-22T14:02:57;39.92;35.29;48.88;;
70740;Laerm;58330;51.888;11.052;2023-02-22T14:05:35;43.21;35.13;54.48;;
70740;Laerm;58330;51.888;11.052;2023-02-22T14:08:04;40.72;34.39;50.33;;